Time;durP1;ratioP1;P1;durP2;ratioP2;P2;SDS_P1;SDS_P2;PMS_P1;PMS_P2;Temp;Humidity;BMP_temperature;BMP_pressure;BME280_temperature;BME280_humidity;BME280_pressure;Samples;Min_cycle;Max_cycle;Signal;HPM_P1;HPM_P2
2024/01/27 00:01:35;;;;;;;;;;;;;;;1.80;100.00;98127.34;5087466;28;20219;-75
2024/01/27 00:04:01;;;;;;;;;;;;;;;1.76;100.00;98130.31;5087369;28;19943;-73
2024/01/27 00:06:27;;;;;;;;;;;;;;;1.74;100.00;98135.63;5086055;28;19969;-73
2024/01/27 00:08:53;;;;;;;;;;;;;;;1.70;100.00;98141.97;5086021;28;19959;-73
2024/01/27 00:11:19;;;;;;;;;;;;;;;1.67;100.00;98144.78;5087376;28;20251;-73
2024/01/27 00:13:45;;;;;;;;;;;;;;;1.62;100.00;98146.91;5087206;28;20112;-73
2024/01/27 00:16:11;;;;;;;;;;;;;;;1.58;100.00;98153.25;5087698;28;19983;-71
2024/01/27 00:18:37;;;;;;;;;;;;;;;1.54;100.00;98157.84;5087388;28;19938;-73
2024/01/27 00:21:07;;;;;;;;;;;;;;;1.50;100.00;98151.25;5087007;28;19941;-73
2024/01/27 00:23:34;;;;;;;;;;;;;;;1.50;100.00;98160.78;5087010;28;19937;-73
2024/01/27 00:26:03;;;;;;;;;;;;;;;1.48;100.00;98158.31;5087487;28;20204;-73
2024/01/27 00:28:29;;;;;;;;;;;;;;;1.49;100.00;98164.31;5085807;28;20124;-73
2024/01/27 00:30:55;;;;;;;;;;;;;;;1.48;100.00;98163.47;5086807;28;19937;-75
2024/01/27 00:33:21;;;;;;;;;;;;;;;1.48;100.00;98165.25;5086863;28;20001;-70
2024/01/27 00:35:47;;;;;;;;;;;;;;;1.48;100.00;98165.25;5087659;28;19940;-70
2024/01/27 00:38:13;;;;;;;;;;;;;;;1.46;100.00;98170.53;5087014;28;20001;-70
2024/01/27 00:40:39;;;;;;;;;;;;;;;1.44;100.00;98169.00;5086762;28;19936;-70
2024/01/27 00:43:05;;;;;;;;;;;;;;;1.42;100.00;98175.09;5086612;28;19970;-70
2024/01/27 00:45:31;;;;;;;;;;;;;;;1.40;100.00;98165.84;5085519;28;19945;-70
2024/01/27 00:47:57;;;;;;;;;;;;;;;1.38;100.00;98173.69;5086597;28;19934;-71
2024/01/27 00:50:23;;;;;;;;;;;;;;;1.37;100.00;98179.00;5086530;28;19940;-70
2024/01/27 00:52:49;;;;;;;;;;;;;;;1.33;100.00;98170.66;5086423;28;19949;-73
2024/01/27 00:55:15;;;;;;;;;;;;;;;1.33;100.00;98190.53;5086482;28;19940;-71
2024/01/27 00:57:41;;;;;;;;;;;;;;;1.31;100.00;98176.88;5086063;28;19937;-71
2024/01/27 01:00:08;;;;;;;;;;;;;;;1.28;100.00;98177.94;5083531;28;20010;-71
2024/01/27 01:02:34;;;;;;;;;;;;;;;1.26;100.00;98182.41;5086869;28;19941;-71
2024/01/27 01:05:00;;;;;;;;;;;;;;;1.25;100.00;98182.53;5086081;28;19964;-71
2024/01/27 01:07:26;;;;;;;;;;;;;;;1.21;100.00;98189.66;5087121;28;19944;-71
2024/01/27 01:09:52;;;;;;;;;;;;;;;1.21;100.00;98192.25;5086074;28;19950;-73
2024/01/27 01:12:18;;;;;;;;;;;;;;;1.20;100.00;98190.63;5086059;28;19952;-70
2024/01/27 01:14:44;;;;;;;;;;;;;;;1.18;100.00;98187.34;5086063;28;19966;-73
2024/01/27 01:17:10;;;;;;;;;;;;;;;1.16;100.00;98184.03;5086010;28;19935;-72
2024/01/27 01:19:36;;;;;;;;;;;;;;;1.14;100.00;98188.50;5086788;28;20010;-73
2024/01/27 01:22:02;;;;;;;;;;;;;;;1.13;100.00;98204.94;5085887;28;20132;-74
2024/01/27 01:24:29;;;;;;;;;;;;;;;1.12;100.00;98198.94;5085907;28;19973;-73
2024/01/27 01:26:55;;;;;;;;;;;;;;;1.09;100.00;98200.91;5085807;28;19940;-73
2024/01/27 01:29:22;;;;;;;;;;;;;;;1.04;100.00;98193.53;5085840;28;19940;-72
2024/01/27 01:31:47;;;;;;;;;;;;;;;1.01;100.00;98198.94;5085681;28;20156;-71
2024/01/27 01:34:13;;;;;;;;;;;;;;;0.96;100.00;98199.25;5085346;28;19945;-70
2024/01/27 01:36:39;;;;;;;;;;;;;;;0.92;100.00;98194.44;5085679;28;19955;-70
2024/01/27 01:39:06;;;;;;;;;;;;;;;0.90;100.00;98194.53;5085578;28;19939;-71
2024/01/27 01:41:31;;;;;;;;;;;;;;;0.86;100.00;98195.72;5085596;28;19936;-71
2024/01/27 01:43:57;;;;;;;;;;;;;;;0.85;100.00;98196.66;5085493;28;19932;-71
2024/01/27 01:46:23;;;;;;;;;;;;;;;0.83;100.00;98195.94;5085505;28;19960;-69
2024/01/27 01:48:49;;;;;;;;;;;;;;;0.84;100.00;98196.75;5086187;28;19932;-72
2024/01/27 01:51:16;;;;;;;;;;;;;;;0.83;100.00;98198.53;5085325;28;19957;-79
2024/01/27 01:53:42;;;;;;;;;;;;;;;0.83;100.00;98195.13;5085309;28;19942;-78
2024/01/27 01:56:08;;;;;;;;;;;;;;;0.84;100.00;98200.19;5085785;28;19937;-79
2024/01/27 01:58:34;;;;;;;;;;;;;;;0.83;100.00;98195.94;5085230;28;19933;-79
2024/01/27 02:01:00;;;;;;;;;;;;;;;0.80;100.00;98198.75;5085966;28;19942;-79
2024/01/27 02:03:26;;;;;;;;;;;;;;;0.75;100.00;98204.25;5085193;28;20210;-79
2024/01/27 02:05:53;;;;;;;;;;;;;;;0.73;100.00;98210.47;5084902;28;19962;-69
2024/01/27 02:08:19;;;;;;;;;;;;;;;0.72;100.00;98208.81;5083857;28;20153;-70
2024/01/27 02:10:45;;;;;;;;;;;;;;;0.70;100.00;98214.09;5083676;28;19934;-70
2024/01/27 02:13:29;;;;;;;;;;;;;;;0.68;100.00;98213.38;5085592;28;19947;-70
2024/01/27 02:15:55;;;;;;;;;;;;;;;0.66;100.00;98214.44;5085698;28;19942;-70
2024/01/27 02:18:21;;;;;;;;;;;;;;;0.63;100.00;98207.75;5067094;28;19940;-70
2024/01/27 02:20:47;;;;;;;;;;;;;;;0.60;100.00;98216.50;5084792;28;20230;-70
2024/01/27 02:23:13;;;;;;;;;;;;;;;0.57;100.00;98216.75;5085274;28;19947;-71
2024/01/27 02:25:38;;;;;;;;;;;;;;;0.55;100.00;98223.78;5084700;28;19937;-77
2024/01/27 02:28:05;;;;;;;;;;;;;;;0.53;100.00;98219.66;5084638;28;19929;-71
2024/01/27 02:30:30;;;;;;;;;;;;;;;0.50;100.00;98217.28;5084907;28;19936;-71
2024/01/27 02:32:57;;;;;;;;;;;;;;;0.45;100.00;98225.38;5083408;28;19947;-71
2024/01/27 02:35:23;;;;;;;;;;;;;;;0.44;100.00;98234.03;5084135;28;20045;-71
2024/01/27 02:37:49;;;;;;;;;;;;;;;0.43;100.00;98236.75;5084465;28;19934;-71
2024/01/27 02:40:15;;;;;;;;;;;;;;;0.40;100.00;98238.63;5085012;28;19934;-71
2024/01/27 02:42:44;;;;;;;;;;;;;;;0.40;100.00;98238.63;5084442;28;19949;-69
2024/01/27 02:45:10;;;;;;;;;;;;;;;0.39;100.00;98246.47;5084353;28;19935;-77
2024/01/27 02:47:37;;;;;;;;;;;;;;;0.36;100.00;98249.28;5084371;28;19997;-77
2024/01/27 02:50:03;;;;;;;;;;;;;;;0.36;100.00;98251.84;5083233;28;19932;-76
2024/01/27 02:52:29;;;;;;;;;;;;;;;0.33;100.00;98252.88;5084226;28;19962;-76
2024/01/27 02:54:55;;;;;;;;;;;;;;;0.32;100.00;98250.41;5084228;28;19935;-76
2024/01/27 02:57:21;;;;;;;;;;;;;;;0.31;100.00;98243.59;5084248;28;19934;-76
2024/01/27 02:59:47;;;;;;;;;;;;;;;0.30;100.00;98241.97;5085000;28;19938;-75
2024/01/27 03:02:13;;;;;;;;;;;;;;;0.31;100.00;98262.47;5084171;28;19934;-67
2024/01/27 03:04:39;;;;;;;;;;;;;;;0.32;100.00;98256.41;5083995;28;19930;-71
2024/01/27 03:07:05;;;;;;;;;;;;;;;0.31;100.00;98252.16;5082951;28;19939;-70
2024/01/27 03:09:31;;;;;;;;;;;;;;;0.31;100.00;98251.34;5082971;28;20023;-70
2024/01/27 03:11:56;;;;;;;;;;;;;;;0.29;100.00;98248.84;5083980;28;19955;-70
2024/01/27 03:14:22;;;;;;;;;;;;;;;0.27;100.00;98255.06;5084074;28;20020;-69
2024/01/27 03:16:48;;;;;;;;;;;;;;;0.24;100.00;98256.13;5084030;28;19927;-70
2024/01/27 03:19:14;;;;;;;;;;;;;;;0.24;100.00;98257.88;5084482;28;19932;-73
2024/01/27 03:21:40;;;;;;;;;;;;;;;0.22;100.00;98259.75;5083949;28;19940;-70
2024/01/27 03:24:06;;;;;;;;;;;;;;;0.21;100.00;98266.66;5090401;28;19940;-70
2024/01/27 03:26:31;;;;;;;;;;;;;;;0.20;100.00;98268.41;5091184;28;19934;-71
2024/01/27 03:28:57;;;;;;;;;;;;;;;0.20;100.00;98270.16;5091421;28;19940;-71
2024/01/27 03:31:29;;;;;;;;;;;;;;;0.22;100.00;98275.22;5091096;28;19936;-71
2024/01/27 03:33:56;;;;;;;;;;;;;;;0.20;100.00;98277.91;5090037;28;20136;-71
2024/01/27 03:36:22;;;;;;;;;;;;;;;0.21;100.00;98284.72;5090508;28;19936;-71
2024/01/27 03:38:48;;;;;;;;;;;;;;;0.19;100.00;98279.66;5090591;28;19942;-70
2024/01/27 03:41:13;;;;;;;;;;;;;;;0.18;100.00;98283.16;5090811;28;19935;-72
2024/01/27 03:43:39;;;;;;;;;;;;;;;0.16;100.00;98282.44;5090512;28;20154;-73
2024/01/27 03:46:05;;;;;;;;;;;;;;;0.14;100.00;98288.66;5090496;28;20238;-73
2024/01/27 03:48:31;;;;;;;;;;;;;;;0.12;100.00;98295.66;5091308;28;19932;-73
2024/01/27 03:50:57;;;;;;;;;;;;;;;0.10;100.00;98298.34;5090650;28;19939;-73
2024/01/27 03:53:23;;;;;;;;;;;;;;;0.11;100.00;98304.34;5090383;28;19954;-73
2024/01/27 03:55:48;;;;;;;;;;;;;;;0.08;100.00;98309.72;5090351;28;19940;-72
2024/01/27 03:58:14;;;;;;;;;;;;;;;0.06;100.00;98316.72;5090368;28;19939;-70
2024/01/27 04:00:40;;;;;;;;;;;;;;;0.04;100.00;98313.44;5089177;28;20005;-73
2024/01/27 04:03:08;;;;;;;;;;;;;;;0.01;100.00;98308.50;5089904;28;19942;-73
2024/01/27 04:05:34;;;;;;;;;;;;;;;-0.02;100.00;98304.38;5090164;28;19963;-72
2024/01/27 04:08:00;;;;;;;;;;;;;;;-0.04;100.00;98306.22;5090949;28;19953;-72
2024/01/27 04:10:26;;;;;;;;;;;;;;;-0.07;100.00;98307.25;5091106;28;19941;-73
2024/01/27 04:12:51;;;;;;;;;;;;;;;-0.10;100.00;98302.31;5090634;28;20150;-72
2024/01/27 04:15:17;;;;;;;;;;;;;;;-0.10;100.00;98298.91;5091036;28;20153;-70
2024/01/27 04:17:43;;;;;;;;;;;;;;;-0.12;100.00;98309.31;5090184;28;20124;-70
2024/01/27 04:20:09;;;;;;;;;;;;;;;-0.12;100.00;98316.25;5089270;28;19944;-70
2024/01/27 04:22:35;;;;;;;;;;;;;;;-0.16;100.00;98314.81;5090653;28;20213;-70
2024/01/27 04:25:01;;;;;;;;;;;;;;;-0.17;100.00;98326.84;5090101;28;20001;-70
2024/01/27 04:27:28;;;;;;;;;;;;;;;-0.18;100.00;98324.41;5090105;28;19930;-70
2024/01/27 04:29:53;;;;;;;;;;;;;;;-0.21;100.00;98326.25;5090351;28;19936;-70
2024/01/27 04:32:21;;;;;;;;;;;;;;;-0.23;100.00;98324.72;5089980;28;19953;-73
2024/01/27 04:34:47;;;;;;;;;;;;;;;-0.24;100.00;98320.47;5087487;28;19939;-71
2024/01/27 04:37:13;;;;;;;;;;;;;;;-0.26;100.00;98325.72;5086784;28;19935;-70
2024/01/27 04:39:39;;;;;;;;;;;;;;;-0.26;100.00;98327.47;5086476;28;20004;-70
2024/01/27 04:42:08;;;;;;;;;;;;;;;-0.28;100.00;98314.69;5087314;28;19934;-70
2024/01/27 04:44:35;;;;;;;;;;;;;;;-0.29;100.00;98323.38;5087208;28;19936;-70
2024/01/27 04:47:00;;;;;;;;;;;;;;;-0.31;100.00;98320.06;5085488;28;19945;-71
2024/01/27 04:49:27;;;;;;;;;;;;;;;-0.34;100.00;98314.28;5087181;28;20307;-70
2024/01/27 04:51:52;;;;;;;;;;;;;;;-0.36;100.00;98323.88;5086488;28;20023;-72
2024/01/27 04:54:18;;;;;;;;;;;;;;;-0.38;100.00;98323.97;5086618;28;20233;-73
2024/01/27 04:56:44;;;;;;;;;;;;;;;-0.38;100.00;98328.28;5087038;28;20224;-73
2024/01/27 04:59:10;;;;;;;;;;;;;;;-0.39;100.00;98321.50;5087273;28;19936;-73
2024/01/27 05:01:36;;;;;;;;;;;;;;;-0.41;100.00;98322.41;5086418;28;19937;-71
2024/01/27 05:04:01;;;;;;;;;;;;;;;-0.43;100.00;98326.84;5087157;28;19936;-73
2024/01/27 05:06:27;;;;;;;;;;;;;;;-0.46;100.00;98321.09;5086184;28;20004;-73
2024/01/27 05:08:53;;;;;;;;;;;;;;;-0.46;100.00;98321.91;5086157;28;19954;-74
2024/01/27 05:11:25;;;;;;;;;;;;;;;-0.33;100.00;98318.53;5086251;28;19942;-71
2024/01/27 05:13:51;;;;;;;;;;;;;;;-0.16;100.00;98318.19;5086043;28;19960;-68
2024/01/27 05:16:17;;;;;;;;;;;;;;;-0.16;100.00;98310.47;5086076;28;19938;-68
2024/01/27 05:18:43;;;;;;;;;;;;;;;-0.22;100.00;98309.13;5086087;28;19945;-68
2024/01/27 05:21:09;;;;;;;;;;;;;;;-0.26;100.00;98314.59;5084911;28;19931;-67
2024/01/27 05:23:34;;;;;;;;;;;;;;;-0.31;100.00;98314.09;5086821;28;20206;-67
2024/01/27 05:26:00;;;;;;;;;;;;;;;-0.37;100.00;98310.16;5085918;28;20223;-67
2024/01/27 05:28:26;;;;;;;;;;;;;;;-0.42;100.00;98312.19;5085876;28;19968;-70
2024/01/27 05:30:52;;;;;;;;;;;;;;;-0.47;100.00;98315.09;5085846;28;19939;-69
2024/01/27 05:33:18;;;;;;;;;;;;;;;-0.51;100.00;98320.56;5085704;28;20013;-69
2024/01/27 05:35:44;;;;;;;;;;;;;;;-0.55;100.00;98311.38;5086276;28;19958;-69
2024/01/27 05:38:10;;;;;;;;;;;;;;;-0.57;100.00;98308.91;5086233;28;19991;-69
2024/01/27 05:40:35;;;;;;;;;;;;;;;-0.58;100.00;98306.44;5085666;28;20002;-69
2024/01/27 05:43:01;;;;;;;;;;;;;;;-0.58;100.00;98311.59;5085571;28;19932;-68
2024/01/27 05:45:28;;;;;;;;;;;;;;;-0.59;100.00;98309.94;5085875;28;19935;-69
2024/01/27 05:47:54;;;;;;;;;;;;;;;-0.61;100.00;98307.44;5085227;28;20105;-71
2024/01/27 05:50:20;;;;;;;;;;;;;;;-0.62;100.00;98314.38;5085475;28;19935;-70
2024/01/27 05:52:46;;;;;;;;;;;;;;;-0.65;100.00;98313.72;5085043;28;20167;-70
2024/01/27 05:55:12;;;;;;;;;;;;;;;-0.67;100.00;98313.84;5084164;28;20228;-70
2024/01/27 05:57:38;;;;;;;;;;;;;;;-0.66;100.00;98314.66;5085277;28;20222;-70
2024/01/27 06:00:05;;;;;;;;;;;;;;;-0.68;100.00;98317.34;5085261;28;19972;-70
2024/01/27 06:02:31;;;;;;;;;;;;;;;-0.68;100.00;98324.25;5085214;28;19936;-70
2024/01/27 06:04:57;;;;;;;;;;;;;;;-0.69;100.00;98330.34;5084982;28;20302;-68
2024/01/27 06:07:22;;;;;;;;;;;;;;;-0.72;100.00;98323.63;5085210;28;19932;-71
2024/01/27 06:09:48;;;;;;;;;;;;;;;-0.72;100.00;98321.03;5067246;28;19995;-71
2024/01/27 06:12:15;;;;;;;;;;;;;;;-0.75;100.00;98328.97;5085166;28;19944;-71
2024/01/27 06:14:41;;;;;;;;;;;;;;;-0.77;100.00;98319.72;5084945;28;19942;-71
2024/01/27 06:17:07;;;;;;;;;;;;;;;-0.80;100.00;98328.44;5084884;28;20225;-71
2024/01/27 06:19:33;;;;;;;;;;;;;;;-0.80;100.00;98330.19;5085424;28;19938;-71
2024/01/27 06:21:59;;;;;;;;;;;;;;;-0.79;100.00;98329.28;5084867;28;19943;-71
2024/01/27 06:24:24;;;;;;;;;;;;;;;-0.82;100.00;98331.13;5084801;28;19971;-67
2024/01/27 06:26:50;;;;;;;;;;;;;;;-0.85;100.00;98323.59;5085529;28;19932;-67
2024/01/27 06:29:16;;;;;;;;;;;;;;;-0.85;100.00;98331.31;5083555;28;20003;-67
2024/01/27 06:31:42;;;;;;;;;;;;;;;-0.86;100.00;98326.25;5085227;28;20006;-67
2024/01/27 06:34:08;;;;;;;;;;;;;;;-0.89;100.00;98329.06;5085341;28;19948;-67
2024/01/27 06:36:34;;;;;;;;;;;;;;;-0.89;100.00;98331.63;5084594;28;19992;-68
2024/01/27 06:39:00;;;;;;;;;;;;;;;-0.92;100.00;98335.22;5085083;28;19981;-68
2024/01/27 06:41:25;;;;;;;;;;;;;;;-0.92;100.00;98345.53;5084492;28;19938;-71
2024/01/27 06:43:51;;;;;;;;;;;;;;;-0.94;100.00;98331.13;5085048;28;20002;-69
2024/01/27 06:46:17;;;;;;;;;;;;;;;-0.94;100.00;98339.66;5085193;28;20229;-76
2024/01/27 06:48:43;;;;;;;;;;;;;;;-0.94;100.00;98338.84;5084919;28;19976;-74
2024/01/27 06:51:09;;;;;;;;;;;;;;;-0.94;100.00;98342.22;5084366;28;19932;-74
2024/01/27 06:53:35;;;;;;;;;;;;;;;-0.97;100.00;98339.03;5084224;28;19950;-75
2024/01/27 06:56:01;;;;;;;;;;;;;;;-0.97;100.00;98337.25;5083172;28;20270;-76
2024/01/27 06:58:26;;;;;;;;;;;;;;;-0.97;100.00;98334.69;5083472;28;20245;-76
2024/01/27 07:00:52;;;;;;;;;;;;;;;-0.98;100.00;98333.06;5083764;28;19942;-71
2024/01/27 07:03:18;;;;;;;;;;;;;;;-0.97;100.00;98337.25;5084277;28;19941;-70
2024/01/27 07:05:44;;;;;;;;;;;;;;;-0.97;100.00;98337.25;5084044;28;19972;-71
2024/01/27 07:08:10;;;;;;;;;;;;;;;-0.99;100.00;98338.28;5083397;28;19965;-71
2024/01/27 07:10:36;;;;;;;;;;;;;;;-0.99;100.00;98336.53;5084131;28;19974;-70
2024/01/27 07:13:02;;;;;;;;;;;;;;;-0.97;100.00;98344.16;5083990;28;19998;-70
2024/01/27 07:15:28;;;;;;;;;;;;;;;-0.98;100.00;98342.53;5084043;28;19934;-70
2024/01/27 07:17:54;;;;;;;;;;;;;;;-0.72;100.00;98340.84;5084045;28;19940;-70
2024/01/27 07:20:24;;;;;;;;;;;;;;;-0.17;100.00;98338.94;5084533;28;19935;-71
2024/01/27 07:22:50;;;;;;;;;;;;;;;-0.11;100.00;98341.91;5083624;28;19942;-75
2024/01/27 07:25:15;;;;;;;;;;;;;;;-0.12;100.00;98340.28;5083932;28;19932;-75
2024/01/27 07:27:41;;;;;;;;;;;;;;;-0.16;100.00;98349.16;5083951;28;19932;-75
2024/01/27 07:30:09;;;;;;;;;;;;;;;0.30;100.00;98352.94;5084425;28;19942;-75
2024/01/27 07:32:35;;;;;;;;;;;;;;;0.41;100.00;98347.84;5083818;28;19937;-75
2024/01/27 07:35:01;;;;;;;;;;;;;;;0.21;100.00;98354.41;5083862;28;19942;-75
2024/01/27 07:37:27;;;;;;;;;;;;;;;-0.04;100.00;98368.97;5084449;28;19937;-72
2024/01/27 07:39:53;;;;;;;;;;;;;;;-0.13;100.00;98366.16;5083875;28;19941;-71
2024/01/27 07:42:19;;;;;;;;;;;;;;;-0.22;100.00;98358.09;5083793;28;19948;-70
2024/01/27 07:44:44;;;;;;;;;;;;;;;0.21;100.00;98364.72;5083812;28;19936;-70
2024/01/27 07:47:10;;;;;;;;;;;;;;;0.57;100.00;98355.34;5083399;28;19936;-70
2024/01/27 07:49:36;;;;;;;;;;;;;;;0.53;100.00;98357.31;5083732;28;19935;-71
2024/01/27 07:52:02;;;;;;;;;;;;;;;0.45;100.00;98357.03;5083614;28;19936;-71
2024/01/27 07:54:29;;;;;;;;;;;;;;;0.39;100.00;98367.75;5083632;28;20204;-71
2024/01/27 07:56:54;;;;;;;;;;;;;;;0.41;100.00;98365.91;5084541;28;19933;-74
2024/01/27 07:59:21;;;;;;;;;;;;;;;0.46;100.00;98370.75;5083602;28;19958;-73
2024/01/27 08:01:47;;;;;;;;;;;;;;;1.26;100.00;98368.50;5083262;28;19945;-73
2024/01/27 08:04:13;;;;;;;;;;;;;;;1.96;100.00;98374.56;5083857;28;19939;-73
2024/01/27 08:06:51;;;;;;;;;;;;;;;2.02;100.00;98372.31;5083387;28;19970;-73
2024/01/27 08:09:17;;;;;;;;;;;;;;;1.85;100.00;98377.97;5084709;28;19962;-74
2024/01/27 08:11:43;;;;;;;;;;;;;;;1.60;100.00;98381.53;5087346;28;19933;-73
2024/01/27 08:14:09;;;;;;;;;;;;;;;1.35;100.00;98375.59;5087153;28;19955;-73
2024/01/27 08:16:35;;;;;;;;;;;;;;;1.42;100.00;98374.19;5087965;28;19941;-73
2024/01/27 08:19:01;;;;;;;;;;;;;;;1.20;100.00;98366.38;5087659;28;19935;-73
2024/01/27 08:21:27;;;;;;;;;;;;;;;0.87;100.00;98370.44;5087158;28;20235;-74
2024/01/27 08:23:53;;;;;;;;;;;;;;;0.62;100.00;98367.94;5087489;28;19970;-73
2024/01/27 08:26:20;;;;;;;;;;;;;;;0.42;100.00;98369.31;5087837;28;19938;-73
2024/01/27 08:28:46;;;;;;;;;;;;;;;0.28;100.00;98365.94;5086975;28;20118;-73
2024/01/27 08:31:12;;;;;;;;;;;;;;;0.11;100.00;98361.09;5086867;28;19942;-73
2024/01/27 08:33:38;;;;;;;;;;;;;;;-0.11;100.00;98370.28;5087663;28;19955;-73
2024/01/27 08:36:04;;;;;;;;;;;;;;;-0.13;100.00;98361.81;5087357;28;19974;-70
2024/01/27 08:38:30;;;;;;;;;;;;;;;-0.06;100.00;98364.84;5087568;28;19971;-71
2024/01/27 08:40:56;;;;;;;;;;;;;;;0.04;100.00;98367.59;5087228;28;20009;-71
2024/01/27 08:43:22;;;;;;;;;;;;;;;0.09;100.00;98360.38;5086702;28;19936;-70
2024/01/27 08:45:48;;;;;;;;;;;;;;;0.11;100.00;98353.38;5087542;28;20085;-70
2024/01/27 08:48:15;;;;;;;;;;;;;;;0.04;100.00;98350.34;5086585;28;19932;-70
2024/01/27 08:50:40;;;;;;;;;;;;;;;0.13;100.00;98351.50;5086509;28;20102;-71
2024/01/27 08:53:06;;;;;;;;;;;;;;;0.23;100.00;98349.91;5086468;28;20017;-79
2024/01/27 08:55:32;;;;;;;;;;;;;;;0.19;100.00;98353.69;5086203;28;19941;-78
2024/01/27 08:57:58;;;;;;;;;;;;;;;0.07;100.00;98364.81;5086486;28;19931;-79
2024/01/27 09:00:24;;;;;;;;;;;;;;;-0.01;100.00;98362.75;5087466;28;19931;-79
2024/01/27 09:02:50;;;;;;;;;;;;;;;0.02;100.00;98359.94;5068407;28;19935;-80
2024/01/27 09:05:16;;;;;;;;;;;;;;;0.06;100.00;98358.00;5084480;28;19972;-80
2024/01/27 09:07:42;;;;;;;;;;;;;;;0.11;100.00;98359.34;5084706;28;19936;-77
2024/01/27 09:10:09;;;;;;;;;;;;;;;0.12;100.00;98373.06;5051593;28;19944;-68
2024/01/27 09:12:35;;;;;;;;;;;;;;;0.06;100.00;98368.31;5067704;28;19937;-75
2024/01/27 09:15:00;;;;;;;;;;;;;;;0.12;100.00;98373.88;5084442;28;20278;-74
2024/01/27 09:17:26;;;;;;;;;;;;;;;0.34;100.00;98375.03;5084433;28;20011;-74
2024/01/27 09:19:52;;;;;;;;;;;;;;;0.56;100.00;98369.19;5083846;28;19996;-74
2024/01/27 09:22:18;;;;;;;;;;;;;;;0.71;100.00;98362.94;5084278;28;19939;-74
2024/01/27 09:24:44;;;;;;;;;;;;;;;0.65;100.00;98367.69;5084230;28;19938;-75
2024/01/27 09:27:10;;;;;;;;;;;;;;;0.50;100.00;98374.75;5084104;28;19951;-70
2024/01/27 09:29:36;;;;;;;;;;;;;;;0.44;100.00;98381.16;5084155;28;19937;-71
2024/01/27 09:32:02;;;;;;;;;;;;;;;0.33;100.00;98376.75;5083221;28;19934;-69
2024/01/27 09:34:28;;;;;;;;;;;;;;;0.27;100.00;98371.19;5085257;28;19963;-70
2024/01/27 09:36:53;;;;;;;;;;;;;;;0.28;100.00;98367.69;5084692;28;19959;-69
2024/01/27 09:39:19;;;;;;;;;;;;;;;0.76;100.00;98368.59;5086459;28;20121;-70
2024/01/27 09:41:47;;;;;;;;;;;;;;;0.96;100.00;98382.69;5086421;28;19935;-70
2024/01/27 09:44:17;;;;;;;;;;;;;;;1.01;100.00;98383.19;5085505;28;19936;-70
2024/01/27 09:46:45;;;;;;;;;;;;;;;1.11;100.00;98392.84;5086082;28;19942;-70
2024/01/27 09:49:13;;;;;;;;;;;;;;;1.17;100.00;98392.41;5086250;28;19936;-70
2024/01/27 09:51:38;;;;;;;;;;;;;;;1.30;100.00;98392.34;5085961;28;19951;-71
2024/01/27 09:54:05;;;;;;;;;;;;;;;1.42;100.00;98389.69;5085281;28;20257;-70
2024/01/27 09:56:31;;;;;;;;;;;;;;;1.51;100.00;98389.97;5084878;28;19937;-71
2024/01/27 09:58:57;;;;;;;;;;;;;;;1.58;100.00;98393.75;5084070;28;20121;-71
2024/01/27 10:01:24;;;;;;;;;;;;;;;1.73;100.00;98394.38;5085205;28;19938;-71
2024/01/27 10:03:50;;;;;;;;;;;;;;;1.80;100.00;98383.44;5085141;28;19935;-74
2024/01/27 10:06:16;;;;;;;;;;;;;;;1.84;100.00;98381.47;5085004;28;20262;-71
2024/01/27 10:08:43;;;;;;;;;;;;;;;1.75;100.00;98382.16;5085016;28;19958;-73
2024/01/27 10:11:09;;;;;;;;;;;;;;;1.77;100.00;98391.44;5083871;28;19934;-73
2024/01/27 10:13:36;;;;;;;;;;;;;;;1.77;100.00;98386.28;5083872;28;19955;-73
2024/01/27 10:16:02;;;;;;;;;;;;;;;1.87;100.00;98395.94;5084907;28;20315;-74
2024/01/27 10:18:29;;;;;;;;;;;;;;;1.96;100.00;98393.50;5085493;28;19958;-73
2024/01/27 10:20:55;;;;;;;;;;;;;;;1.94;100.00;98384.19;5084431;28;19938;-73
2024/01/27 10:23:20;;;;;;;;;;;;;;;1.96;100.00;98390.91;5084834;28;20138;-74
2024/01/27 10:25:46;;;;;;;;;;;;;;;2.09;100.00;98385.63;5085323;28;20004;-73
2024/01/27 10:28:12;;;;;;;;;;;;;;;2.31;100.00;98371.03;5084670;28;19936;-73
2024/01/27 10:30:38;;;;;;;;;;;;;;;2.72;100.00;98367.81;5084658;28;20212;-73
2024/01/27 10:33:04;;;;;;;;;;;;;;;3.22;100.00;98354.38;5084415;28;19935;-73
2024/01/27 10:35:30;;;;;;;;;;;;;;;3.70;100.00;98345.28;5084610;28;19946;-73
2024/01/27 10:37:56;;;;;;;;;;;;;;;4.13;100.00;98339.06;5084553;28;19934;-72
2024/01/27 10:40:29;;;;;;;;;;;;;;;4.45;100.00;98331.97;5084470;28;20220;-71
2024/01/27 10:43:05;;;;;;;;;;;;;;;4.79;100.00;98317.81;5084143;28;19940;-76
2024/01/27 10:45:35;;;;;;;;;;;;;;;5.16;100.00;98306.72;5085195;28;20077;-70
2024/01/27 10:48:02;;;;;;;;;;;;;;;5.48;100.00;98304.66;5084388;28;19934;-70
2024/01/27 10:50:28;;;;;;;;;;;;;;;5.79;100.00;98303.63;5084348;28;19936;-70
2024/01/27 10:52:57;;;;;;;;;;;;;;;5.88;100.00;98282.75;5084295;28;20002;-70
2024/01/27 10:55:24;;;;;;;;;;;;;;;5.94;100.00;98280.53;5084629;28;19961;-70
2024/01/27 10:57:52;;;;;;;;;;;;;;;5.98;100.00;98293.16;5084201;28;19936;-70
2024/01/27 11:00:18;;;;;;;;;;;;;;;6.04;100.00;98299.59;5084754;28;19936;-73
2024/01/27 11:02:45;;;;;;;;;;;;;;;6.07;100.00;98289.72;5084117;28;20108;-71
2024/01/27 11:05:12;;;;;;;;;;;;;;;5.69;100.00;98241.16;5084602;28;19962;-72
2024/01/27 11:07:39;;;;;;;;;;;;;;;5.32;100.00;98298.38;5084098;28;19940;-72
2024/01/27 11:10:05;;;;;;;;;;;;;;;4.91;100.00;98311.50;5084126;28;19933;-71
2024/01/27 11:12:31;;;;;;;;;;;;;;;4.55;100.00;98313.78;5084079;28;19937;-72
2024/01/27 11:15:00;;;;;;;;;;;;;;;4.27;100.00;98326.56;5084008;28;19953;-72
2024/01/27 11:17:26;;;;;;;;;;;;;;;4.17;100.00;98336.09;5084913;28;19932;-72
2024/01/27 11:19:53;;;;;;;;;;;;;;;4.03;100.00;98326.88;5082951;28;20084;-71
2024/01/27 11:22:26;;;;;;;;;;;;;;;3.70;100.00;98329.72;5083978;28;20155;-70
2024/01/27 11:24:52;;;;;;;;;;;;;;;3.44;100.00;98324.91;5084515;28;19943;-71
2024/01/27 11:27:26;;;;;;;;;;;;;;;3.22;100.00;98318.88;5084104;28;19941;-71
2024/01/27 11:29:52;;;;;;;;;;;;;;;3.10;100.00;98329.44;5084173;28;20239;-70
2024/01/27 11:32:18;;;;;;;;;;;;;;;3.05;100.00;98320.25;5084628;28;19937;-71
2024/01/27 11:34:44;;;;;;;;;;;;;;;3.12;100.00;98328.34;5084251;28;19953;-70
2024/01/27 11:37:24;;;;;;;;;;;;;;;3.48;100.00;98322.88;5084571;28;19939;-71
2024/01/27 11:39:51;;;;;;;;;;;;;;;3.76;100.00;98326.59;5084334;28;20243;-71
2024/01/27 11:42:17;;;;;;;;;;;;;;;3.86;100.00;98330.91;5083819;28;19933;-71
2024/01/27 11:44:44;;;;;;;;;;;;;;;4.00;100.00;98347.09;5087625;28;20006;-71
2024/01/27 11:47:17;;;;;;;;;;;;;;;4.24;100.00;98337.22;5088272;28;19934;-71
2024/01/27 11:49:44;;;;;;;;;;;;;;;4.47;100.00;98324.00;5087720;28;19941;-71
2024/01/27 11:52:10;;;;;;;;;;;;;;;4.56;100.00;98310.25;5088181;28;20090;-71
2024/01/27 11:54:38;;;;;;;;;;;;;;;4.53;100.00;98307.91;5087534;28;19995;-71
2024/01/27 11:57:04;;;;;;;;;;;;;;;4.46;100.00;98293.81;5088087;28;19971;-71
2024/01/27 11:59:30;;;;;;;;;;;;;;;4.39;100.00;98305.66;5087457;28;19950;-71
2024/01/27 12:01:55;;;;;;;;;;;;;;;4.54;100.00;98299.16;5088054;28;19931;-71
2024/01/27 12:04:21;;;;;;;;;;;;;;;4.60;100.00;98295.19;5087927;28;19932;-70
2024/01/27 12:06:48;;;;;;;;;;;;;;;4.59;100.00;98278.78;5087242;28;19962;-71
2024/01/27 12:09:16;;;;;;;;;;;;;;;4.60;100.00;98290.00;5087531;28;19963;-71
2024/01/27 12:11:42;;;;;;;;;;;;;;;4.77;100.00;98283.34;5087311;28;19939;-71
2024/01/27 12:14:08;;;;;;;;;;;;;;;4.85;100.00;98262.66;5087681;28;19947;-75
2024/01/27 12:16:34;;;;;;;;;;;;;;;4.86;100.00;98272.09;5087223;28;19971;-73
2024/01/27 12:19:00;;;;;;;;;;;;;;;4.86;100.00;98264.31;5087686;28;19925;-73
2024/01/27 12:21:26;;;;;;;;;;;;;;;4.90;100.00;98255.28;5087418;28;19930;-72
2024/01/27 12:23:54;;;;;;;;;;;;;;;4.96;100.00;98259.13;5086678;28;20457;-74
2024/01/27 12:26:21;;;;;;;;;;;;;;;4.99;100.00;98256.22;5086999;28;19930;-73
2024/01/27 12:28:47;;;;;;;;;;;;;;;5.16;100.00;98254.72;5087039;28;19949;-74
2024/01/27 12:31:15;;;;;;;;;;;;;;;5.34;100.00;98263.47;5087140;28;19936;-71
2024/01/27 12:33:42;;;;;;;;;;;;;;;5.53;100.00;98253.97;5085618;28;19953;-71
2024/01/27 12:36:08;;;;;;;;;;;;;;;5.65;100.00;98232.84;5086782;28;20213;-71
2024/01/27 12:38:33;;;;;;;;;;;;;;;5.62;100.00;98227.91;5087314;28;19967;-70